createdAt,value
2023-04-14T00:00:09.962Z,3.90
2023-04-14T00:02:37.624Z,3.97
2023-04-14T00:05:05.987Z,4.20
2023-04-14T00:07:34.804Z,6.20
2023-04-14T00:10:02.411Z,4.23
2023-04-14T00:12:30.034Z,3.77
2023-04-14T00:14:57.486Z,5.70
2023-04-14T00:17:25.071Z,3.33
2023-04-14T00:19:52.615Z,6.97
2023-04-14T00:22:21.792Z,4.70
2023-04-14T00:24:50.768Z,6.20
2023-04-14T00:27:18.292Z,3.87
2023-04-14T00:29:45.882Z,6.57
2023-04-14T00:32:13.327Z,6.10
2023-04-14T00:34:40.786Z,4.20
2023-04-14T00:37:08.238Z,4.10
2023-04-14T00:39:36.291Z,4.90
2023-04-14T00:42:05.254Z,5.10
2023-04-14T00:44:32.798Z,7.30
2023-04-14T00:47:01.976Z,7.97
2023-04-14T00:49:29.496Z,5.80
2023-04-14T00:51:57.475Z,4.47
2023-04-14T00:54:26.448Z,5.30
2023-04-14T00:56:54.786Z,3.43
2023-04-14T00:59:23.864Z,4.60
2023-04-14T01:01:51.609Z,5.30
2023-04-14T01:04:19.331Z,4.57
2023-04-14T01:06:46.793Z,4.00
2023-04-14T01:09:15.842Z,2.80
2023-04-14T01:11:49.434Z,4.57
2023-04-14T01:14:32.118Z,9.10
2023-04-14T01:17:02.623Z,3.90
2023-04-14T01:19:43.918Z,3.90
2023-04-14T01:22:12.686Z,6.33
2023-04-14T01:24:57.684Z,3.70
2023-04-14T01:27:35.706Z,3.80
2023-04-14T01:30:23.150Z,5.80
2023-04-14T01:32:54.356Z,4.60
2023-04-14T01:35:27.169Z,6.53
2023-04-14T01:38:00.796Z,6.97
2023-04-14T01:40:29.298Z,4.67
2023-04-14T01:42:59.600Z,4.00
2023-04-14T01:45:30.095Z,3.57
2023-04-14T01:47:59.601Z,4.70
2023-04-14T01:50:28.107Z,3.13
2023-04-14T01:52:55.892Z,4.10
2023-04-14T01:55:24.734Z,3.07
2023-04-14T01:57:53.891Z,3.07
2023-04-14T02:00:22.225Z,3.33
2023-04-14T02:02:52.186Z,5.07
2023-04-14T02:05:22.857Z,3.20
2023-04-14T02:07:52.580Z,3.90
2023-04-14T02:10:21.540Z,3.90
2023-04-14T02:12:50.527Z,2.50
2023-04-14T02:15:18.604Z,3.93
2023-04-14T02:17:48.131Z,3.23
2023-04-14T02:20:15.926Z,5.67
2023-04-14T02:22:44.763Z,3.60
2023-04-14T02:25:12.246Z,5.90
2023-04-14T02:27:42.372Z,3.13
2023-04-14T02:30:13.024Z,3.43
2023-04-14T02:32:41.968Z,3.20
2023-04-14T02:35:13.499Z,3.53
2023-04-14T02:37:42.904Z,3.77
2023-04-14T02:40:15.769Z,4.97
2023-04-14T02:42:46.518Z,5.27
2023-04-14T02:45:19.888Z,5.57
2023-04-14T02:47:49.011Z,3.70
2023-04-14T02:50:17.750Z,7.90
2023-04-14T02:52:47.614Z,5.93
2023-04-14T02:55:16.507Z,4.50
2023-04-14T02:57:43.992Z,3.67
2023-04-14T03:00:12.800Z,4.47
2023-04-14T03:02:40.907Z,6.70
2023-04-14T03:05:09.544Z,9.40
2023-04-14T03:07:37.476Z,14.03
2023-04-14T03:10:05.601Z,15.60
2023-04-14T03:12:36.085Z,11.37
2023-04-14T03:15:03.871Z,10.97
2023-04-14T03:17:32.416Z,7.93
2023-04-14T03:20:00.220Z,7.43
2023-04-14T03:22:28.538Z,6.50
2023-04-14T03:24:58.726Z,9.03
2023-04-14T03:27:27.882Z,7.60
2023-04-14T03:30:03.162Z,6.20
2023-04-14T03:32:35.575Z,7.40
2023-04-14T03:35:03.341Z,4.73
2023-04-14T03:37:32.675Z,7.57
2023-04-14T03:40:01.651Z,5.60
2023-04-14T03:42:30.291Z,8.13
2023-04-14T03:45:00.463Z,6.73
2023-04-14T03:47:31.659Z,6.10
2023-04-14T03:50:01.284Z,5.70
2023-04-14T03:52:29.580Z,3.90
2023-04-14T03:54:58.956Z,4.73
2023-04-14T03:57:29.129Z,6.17
2023-04-14T03:59:56.790Z,7.33
2023-04-14T04:02:27.177Z,4.50
2023-04-14T04:04:55.665Z,5.40
2023-04-14T04:07:23.615Z,7.07
2023-04-14T04:09:51.803Z,5.70
2023-04-14T04:12:20.880Z,8.40
2023-04-14T04:14:48.554Z,6.73
2023-04-14T04:17:19.018Z,5.33
2023-04-14T04:19:48.508Z,10.63
2023-04-14T04:22:18.346Z,5.30
2023-04-14T04:24:45.934Z,7.20
2023-04-14T04:27:26.583Z,5.90
2023-04-14T04:29:55.657Z,8.30
2023-04-14T04:32:23.558Z,8.73
2023-04-14T04:34:54.062Z,5.33
2023-04-14T04:37:22.539Z,5.40
2023-04-14T04:39:50.078Z,5.63
2023-04-14T04:42:17.535Z,7.03
2023-04-14T04:44:45.212Z,5.60
2023-04-14T04:47:13.893Z,7.40
2023-04-14T04:49:41.346Z,8.40
2023-04-14T04:52:10.316Z,10.00
2023-04-14T04:54:37.766Z,7.80
2023-04-14T04:57:05.204Z,7.93
2023-04-14T04:59:32.992Z,11.87
2023-04-14T05:02:00.850Z,14.07
2023-04-14T05:04:28.405Z,12.60
2023-04-14T05:06:55.862Z,13.10
2023-04-14T05:09:24.635Z,12.10
2023-04-14T05:11:52.046Z,13.50
2023-04-14T05:14:19.514Z,16.50
2023-04-14T05:16:47.088Z,23.23
2023-04-14T05:19:14.947Z,21.23
2023-04-14T05:21:42.402Z,16.33
2023-04-14T05:24:09.864Z,17.63
2023-04-14T05:26:57.694Z,23.40
2023-04-14T05:29:26.020Z,16.80
2023-04-14T05:31:53.456Z,19.20
2023-04-14T05:34:20.924Z,15.13
2023-04-14T05:36:48.416Z,20.83
2023-04-14T05:39:16.449Z,20.20
2023-04-14T05:41:45.400Z,17.30
2023-04-14T05:44:12.858Z,20.80
2023-04-14T05:46:41.226Z,19.27
2023-04-14T05:49:08.788Z,20.17
2023-04-14T05:51:36.315Z,25.63
2023-04-14T05:54:03.888Z,19.07
2023-04-14T05:56:31.754Z,23.70
2023-04-14T05:59:00.513Z,23.87
2023-04-14T06:01:28.033Z,19.80
2023-04-14T06:03:55.767Z,20.93
2023-04-14T06:06:23.491Z,19.60
2023-04-14T06:08:50.976Z,22.40
2023-04-14T06:11:18.464Z,23.00
2023-04-14T06:13:45.918Z,27.47
2023-04-14T06:16:14.769Z,25.23
2023-04-14T06:18:42.276Z,23.50
2023-04-14T06:21:09.814Z,28.07
2023-04-14T06:23:37.253Z,26.43
2023-04-14T06:26:05.487Z,32.67
2023-04-14T06:28:32.964Z,21.73
2023-04-14T06:31:01.271Z,23.17
2023-04-14T06:33:30.022Z,20.03
2023-04-14T06:35:57.516Z,20.20
2023-04-14T06:38:25.209Z,18.10
2023-04-14T06:40:53.357Z,22.80
2023-04-14T06:43:21.118Z,23.63
2023-04-14T06:45:50.364Z,25.83
2023-04-14T06:48:17.881Z,23.87
2023-04-14T06:50:53.786Z,28.63
2023-04-14T06:53:21.673Z,24.00
2023-04-14T06:55:50.359Z,29.63
2023-04-14T06:58:17.878Z,18.70
2023-04-14T07:00:45.330Z,24.50
2023-04-14T07:03:12.818Z,22.70
2023-04-14T07:05:40.262Z,22.87
2023-04-14T07:08:09.367Z,25.03
2023-04-14T07:10:36.804Z,26.63
2023-04-14T07:13:04.427Z,21.67
2023-04-14T07:15:31.911Z,22.83
2023-04-14T07:18:00.125Z,24.97
2023-04-14T07:20:27.975Z,29.47
2023-04-14T07:22:55.537Z,24.80
2023-04-14T07:25:24.311Z,23.47
2023-04-14T07:28:02.724Z,16.83
2023-04-14T07:30:31.475Z,20.60
2023-04-14T07:32:59.066Z,25.10
2023-04-14T07:35:26.795Z,18.70
2023-04-14T07:37:54.245Z,22.80
2023-04-14T07:40:21.752Z,20.03
2023-04-14T07:42:50.508Z,24.67
2023-04-14T07:45:18.412Z,18.60
2023-04-14T07:47:45.859Z,20.97
2023-04-14T07:50:13.358Z,19.43
2023-04-14T07:52:41.162Z,24.53
2023-04-14T07:55:08.757Z,18.90
2023-04-14T07:57:36.359Z,22.17
2023-04-14T08:00:05.823Z,24.57
2023-04-14T08:02:33.662Z,33.10
2023-04-14T08:05:01.241Z,31.33
2023-04-14T08:07:29.459Z,24.33
2023-04-14T08:09:56.959Z,20.37
2023-04-14T08:12:25.073Z,23.90
2023-04-14T08:14:53.396Z,20.47
2023-04-14T08:17:22.559Z,24.00
2023-04-14T08:19:50.045Z,26.00
2023-04-14T08:22:18.382Z,22.70
2023-04-14T08:24:45.886Z,27.50
2023-04-14T08:27:13.361Z,18.00
2023-04-14T08:29:40.822Z,22.53
2023-04-14T08:32:08.340Z,22.50
2023-04-14T08:34:37.531Z,24.70
2023-04-14T08:37:04.996Z,23.00
2023-04-14T08:39:32.440Z,24.10
2023-04-14T08:41:59.906Z,24.83
2023-04-14T08:44:27.359Z,24.60
2023-04-14T08:46:56.471Z,23.87
2023-04-14T08:49:29.647Z,24.20
2023-04-14T08:51:59.734Z,24.50
2023-04-14T08:54:28.434Z,24.73
2023-04-14T08:56:58.507Z,23.60
2023-04-14T08:59:26.827Z,25.27
2023-04-14T09:01:55.211Z,21.90
2023-04-14T09:04:23.275Z,19.07
2023-04-14T09:06:51.519Z,16.70
2023-04-14T09:09:20.435Z,15.63
2023-04-14T09:11:48.327Z,16.03
2023-04-14T09:14:16.310Z,17.50
2023-04-14T09:16:43.801Z,21.10
2023-04-14T09:19:11.861Z,19.57
2023-04-14T09:21:53.997Z,17.10
2023-04-14T09:24:29.414Z,16.73
2023-04-14T09:26:59.354Z,18.40
2023-04-14T09:29:27.326Z,16.00
2023-04-14T09:31:55.063Z,16.00
2023-04-14T09:34:22.969Z,14.83
2023-04-14T09:37:05.413Z,17.13
2023-04-14T09:39:35.069Z,17.00
2023-04-14T09:42:03.614Z,16.67
2023-04-14T09:44:31.310Z,15.57
2023-04-14T09:47:02.382Z,15.50
2023-04-14T09:49:30.202Z,17.27
2023-04-14T09:52:04.700Z,18.57
2023-04-14T09:54:33.942Z,16.83
2023-04-14T09:57:01.606Z,14.30
2023-04-14T09:59:33.977Z,19.10
2023-04-14T10:02:04.414Z,13.80
2023-04-14T10:04:32.113Z,16.67
2023-04-14T10:06:59.749Z,15.53
2023-04-14T10:09:28.744Z,15.57
2023-04-14T10:12:10.837Z,12.47
2023-04-14T10:14:38.779Z,13.97
2023-04-14T10:17:06.555Z,14.57
2023-04-14T10:19:34.108Z,12.40
2023-04-14T10:22:01.844Z,9.80
2023-04-14T10:24:29.352Z,14.53
2023-04-14T10:26:56.873Z,9.40
2023-04-14T10:29:25.904Z,15.00
2023-04-14T10:31:56.027Z,10.83
2023-04-14T10:34:24.287Z,8.90
2023-04-14T10:36:51.771Z,8.00
2023-04-14T10:39:24.578Z,7.50
2023-04-14T10:41:53.441Z,6.80
2023-04-14T10:44:24.268Z,6.33
2023-04-14T10:46:54.050Z,9.23
2023-04-14T10:49:25.085Z,10.30
2023-04-14T10:51:52.627Z,7.13
2023-04-14T10:54:20.103Z,7.90
2023-04-14T10:57:12.296Z,7.73
2023-04-14T10:59:42.269Z,5.07
2023-04-14T11:02:28.252Z,4.40
2023-04-14T11:05:04.733Z,7.03
2023-04-14T11:07:33.351Z,3.53
2023-04-14T11:10:05.015Z,7.63
2023-04-14T11:12:32.634Z,6.97
2023-04-14T11:15:03.733Z,7.33
2023-04-14T11:17:33.965Z,9.43
2023-04-14T11:20:01.686Z,4.97
2023-04-14T11:22:41.872Z,2.80
2023-04-14T11:25:12.430Z,4.77
2023-04-14T11:27:40.901Z,7.37
2023-04-14T11:30:10.035Z,4.60
2023-04-14T11:32:50.128Z,4.10
2023-04-14T11:35:18.462Z,6.37
2023-04-14T11:37:46.972Z,4.57
2023-04-14T11:40:15.887Z,3.70
2023-04-14T11:42:46.789Z,3.80
2023-04-14T11:45:16.694Z,2.50
2023-04-14T11:48:03.588Z,2.77
2023-04-14T11:50:33.438Z,4.20
2023-04-14T11:53:02.575Z,3.33
2023-04-14T11:55:30.729Z,5.20
2023-04-14T11:57:59.139Z,5.80
2023-04-14T12:00:27.943Z,5.87
2023-04-14T12:02:55.607Z,3.10
2023-04-14T12:05:30.242Z,2.23
2023-04-14T12:07:59.989Z,6.13
2023-04-14T12:10:27.985Z,4.93
2023-04-14T12:13:00.824Z,2.87
2023-04-14T12:15:28.556Z,2.70
2023-04-14T12:17:57.065Z,3.53
2023-04-14T12:20:26.077Z,3.30
2023-04-14T12:22:53.709Z,5.07
2023-04-14T12:25:21.159Z,5.03
2023-04-14T12:27:54.459Z,3.37
2023-04-14T12:30:24.352Z,2.60
2023-04-14T12:32:52.886Z,5.23
2023-04-14T12:35:23.279Z,4.20
2023-04-14T12:37:53.235Z,3.87
2023-04-14T12:40:38.601Z,2.40
2023-04-14T12:43:06.154Z,3.37
2023-04-14T12:45:43.574Z,2.80
2023-04-14T12:48:12.292Z,5.23
2023-04-14T12:50:40.265Z,3.80
2023-04-14T12:53:27.330Z,4.67
2023-04-14T12:56:08.859Z,3.20
2023-04-14T12:58:37.716Z,3.90
2023-04-14T13:01:06.547Z,3.43
2023-04-14T13:03:46.195Z,4.53
2023-04-14T13:06:16.239Z,4.80
2023-04-14T13:08:46.009Z,2.60
2023-04-14T13:11:13.764Z,4.17
2023-04-14T13:13:41.292Z,6.80
2023-04-14T13:16:15.283Z,5.00
2023-04-14T13:18:44.149Z,3.43
2023-04-14T13:21:11.982Z,3.47
2023-04-14T13:23:39.535Z,3.77
2023-04-14T13:26:08.354Z,7.10
2023-04-14T13:28:36.470Z,3.90
2023-04-14T13:31:04.025Z,2.60
2023-04-14T13:33:33.932Z,4.20
2023-04-14T13:36:02.588Z,5.13
2023-04-14T13:38:30.847Z,4.33
2023-04-14T13:40:58.354Z,6.70
2023-04-14T13:43:27.138Z,1.80
2023-04-14T13:45:57.786Z,3.43
2023-04-14T13:48:25.758Z,4.33
2023-04-14T13:50:54.214Z,5.17
2023-04-14T13:53:21.723Z,2.63
2023-04-14T13:55:49.160Z,1.87
2023-04-14T13:58:16.727Z,4.17
2023-04-14T14:00:45.522Z,1.60
2023-04-14T14:03:13.067Z,3.10
2023-04-14T14:05:40.703Z,4.50
2023-04-14T14:08:08.186Z,3.30
2023-04-14T14:10:35.653Z,2.80
2023-04-14T14:13:03.576Z,3.80
2023-04-14T14:15:31.292Z,2.53
2023-04-14T14:18:00.259Z,4.93
2023-04-14T14:20:27.780Z,4.70
2023-04-14T14:22:55.318Z,3.47
2023-04-14T14:25:22.792Z,2.57
2023-04-14T14:27:51.818Z,1.77
2023-04-14T14:30:19.505Z,3.20
2023-04-14T14:32:47.088Z,4.93
2023-04-14T14:35:16.465Z,2.60
2023-04-14T14:37:45.550Z,2.90
2023-04-14T14:40:13.820Z,4.23
2023-04-14T14:42:41.288Z,1.93
2023-04-14T14:45:10.115Z,3.60
2023-04-14T14:47:38.871Z,2.40
2023-04-14T14:50:09.056Z,3.33
2023-04-14T14:52:37.812Z,1.27
2023-04-14T14:55:06.200Z,3.87
2023-04-14T14:57:33.666Z,4.23
2023-04-14T15:00:01.122Z,2.57
2023-04-14T15:02:28.736Z,2.70
2023-04-14T15:04:56.533Z,5.60
2023-04-14T15:07:23.957Z,1.80
2023-04-14T15:09:52.980Z,2.80
2023-04-14T15:12:35.538Z,2.37
2023-04-14T15:15:03.059Z,3.33
2023-04-14T15:17:31.301Z,5.40
2023-04-14T15:20:03.480Z,1.93
2023-04-14T15:22:30.936Z,3.07
2023-04-14T15:24:59.721Z,6.37
2023-04-14T15:27:27.200Z,3.63
2023-04-14T15:29:54.861Z,2.03
2023-04-14T15:32:25.265Z,2.30
2023-04-14T15:34:52.901Z,3.73
2023-04-14T15:37:20.512Z,5.40
2023-04-14T15:39:48.061Z,3.83
2023-04-14T15:42:16.892Z,4.63
2023-04-14T15:44:44.436Z,2.80
2023-04-14T15:47:11.988Z,3.03
2023-04-14T15:49:39.455Z,4.13
2023-04-14T15:52:06.932Z,3.03
2023-04-14T15:54:34.397Z,2.90
2023-04-14T15:57:02.228Z,2.17
2023-04-14T15:59:31.207Z,2.23
2023-04-14T16:02:00.830Z,2.73
2023-04-14T16:04:28.489Z,2.47
2023-04-14T16:06:56.317Z,2.03
2023-04-14T16:09:23.953Z,4.00
2023-04-14T16:11:51.727Z,2.80
2023-04-14T16:14:19.215Z,3.90
2023-04-14T16:16:48.219Z,5.33
2023-04-14T16:19:16.525Z,2.50
2023-04-14T16:21:43.987Z,5.00
2023-04-14T16:24:11.560Z,3.03
2023-04-14T16:26:39.229Z,5.07
2023-04-14T16:29:06.831Z,3.33
2023-04-14T16:31:34.382Z,2.43
2023-04-14T16:34:03.962Z,1.83
2023-04-14T16:36:33.240Z,2.97
2023-04-14T16:39:01.174Z,1.80
2023-04-14T16:41:28.840Z,1.73
2023-04-14T16:43:56.301Z,3.13
2023-04-14T16:46:25.011Z,2.03
2023-04-14T16:48:53.198Z,1.70
2023-04-14T16:51:22.713Z,3.50
2023-04-14T16:53:50.439Z,7.43
2023-04-14T16:56:19.425Z,2.47
2023-04-14T16:58:47.390Z,2.30
2023-04-14T17:01:14.880Z,2.97
2023-04-14T17:03:42.611Z,2.60
2023-04-14T17:06:10.364Z,2.00
2023-04-14T17:08:39.562Z,4.80
2023-04-14T17:11:07.109Z,3.47
2023-04-14T17:13:34.778Z,4.83
2023-04-14T17:16:08.913Z,3.17
2023-04-14T17:18:37.077Z,3.43
2023-04-14T17:21:05.677Z,13.50
2023-04-14T17:23:36.005Z,7.40
2023-04-14T17:26:05.617Z,3.60
2023-04-14T17:28:34.746Z,4.83
2023-04-14T17:31:02.565Z,5.10
2023-04-14T17:33:30.232Z,5.57
2023-04-14T17:35:58.172Z,4.30
2023-04-14T17:38:25.679Z,3.43
2023-04-14T17:40:54.552Z,6.07
2023-04-14T17:43:23.440Z,3.33
2023-04-14T17:45:51.406Z,6.60
2023-04-14T17:48:19.402Z,4.10
2023-04-14T17:50:47.588Z,6.80
2023-04-14T17:53:16.180Z,4.07
2023-04-14T17:55:44.757Z,7.27
2023-04-14T17:58:12.255Z,3.80
2023-04-14T18:00:41.412Z,5.90
2023-04-14T18:03:09.120Z,3.50
2023-04-14T18:05:37.273Z,7.00
2023-04-14T18:08:05.033Z,6.43
2023-04-14T18:10:32.641Z,3.03
2023-04-14T18:13:00.845Z,2.60
2023-04-14T18:15:28.293Z,2.50
2023-04-14T18:17:57.371Z,1.43
2023-04-14T18:20:26.340Z,3.20
2023-04-14T18:22:54.586Z,3.27
2023-04-14T18:25:22.119Z,4.13
2023-04-14T18:30:20.049Z,9.60
2023-04-14T18:32:47.647Z,4.20
2023-04-14T18:35:16.624Z,10.90
2023-04-14T18:37:46.232Z,8.23
2023-04-14T18:40:13.937Z,4.90
2023-04-14T18:42:41.393Z,7.03
2023-04-14T18:45:09.772Z,5.13
2023-04-14T18:47:37.330Z,7.80
2023-04-14T18:50:05.404Z,10.63
2023-04-14T18:52:34.187Z,10.23
2023-04-14T18:55:01.722Z,6.20
2023-04-14T18:57:30.651Z,4.00
2023-04-14T18:59:58.409Z,3.37
2023-04-14T19:02:26.095Z,2.10
2023-04-14T19:04:53.817Z,3.20
2023-04-14T19:07:21.269Z,4.50
2023-04-14T19:09:50.506Z,7.43
2023-04-14T19:12:27.700Z,16.03
2023-04-14T19:14:56.260Z,17.57
2023-04-14T19:17:23.869Z,14.83
2023-04-14T19:19:51.455Z,17.07
2023-04-14T19:22:19.048Z,11.53
2023-04-14T19:24:46.630Z,10.23
2023-04-14T19:27:15.508Z,9.33
2023-04-14T19:29:43.005Z,10.50
2023-04-14T19:32:10.467Z,8.50
2023-04-14T19:34:38.045Z,9.20
2023-04-14T19:37:05.551Z,6.20
2023-04-14T19:39:34.335Z,9.00
2023-04-14T19:42:01.848Z,8.17
2023-04-14T19:44:30.745Z,11.80
2023-04-14T19:46:58.404Z,7.67
2023-04-14T19:49:26.167Z,11.47
2023-04-14T19:51:54.298Z,13.70
2023-04-14T19:54:21.767Z,16.30
2023-04-14T19:56:49.247Z,18.10
2023-04-14T19:59:16.716Z,17.40
2023-04-14T20:01:47.439Z,19.40
2023-04-14T20:04:15.141Z,19.13
2023-04-14T20:06:42.892Z,19.97
2023-04-14T20:09:10.815Z,15.47
2023-04-14T20:11:38.461Z,15.07
2023-04-14T20:14:06.034Z,13.30
2023-04-14T20:16:34.705Z,11.90
2023-04-14T20:19:03.964Z,12.13
2023-04-14T20:21:31.669Z,9.87
2023-04-14T20:23:59.328Z,8.80
2023-04-14T20:26:27.417Z,7.33
2023-04-14T20:28:56.094Z,5.53
2023-04-14T20:31:24.309Z,6.70
2023-04-14T20:33:51.847Z,5.10
2023-04-14T20:36:21.433Z,6.17
2023-04-14T20:38:48.878Z,5.17
2023-04-14T20:41:16.378Z,7.43
2023-04-14T20:43:43.902Z,5.83
2023-04-14T20:46:11.551Z,5.20
2023-04-14T20:48:39.087Z,5.83
2023-04-14T20:51:06.584Z,19.93
2023-04-14T20:53:35.851Z,10.60
2023-04-14T20:56:03.344Z,7.37
2023-04-14T20:58:31.464Z,7.83
2023-04-14T21:00:59.177Z,8.97
2023-04-14T21:03:27.795Z,5.33
2023-04-14T21:05:55.776Z,7.30
2023-04-14T21:08:23.228Z,8.00
2023-04-14T21:11:15.767Z,9.13
2023-04-14T21:15:28.493Z,5.60
2023-04-14T21:16:29.231Z,7.00
2023-04-14T21:18:56.791Z,6.43
2023-04-14T21:21:24.408Z,8.93
2023-04-14T21:23:52.087Z,7.70
2023-04-14T21:26:21.900Z,4.97
2023-04-14T21:28:49.367Z,6.10
2023-04-14T21:31:17.427Z,7.53
2023-04-14T21:33:47.748Z,9.67
2023-04-14T21:36:15.604Z,5.30
2023-04-14T21:38:43.374Z,9.03
2023-04-14T21:41:11.019Z,6.27
2023-04-14T21:43:39.835Z,5.03
2023-04-14T21:46:07.982Z,4.50
2023-04-14T21:48:35.591Z,5.17
2023-04-14T21:51:03.895Z,3.97
2023-04-14T21:53:32.052Z,5.50
2023-04-14T21:56:09.806Z,3.87
2023-04-14T21:58:40.154Z,4.63
2023-04-14T22:01:09.402Z,3.30
2023-04-14T22:03:37.851Z,3.70
2023-04-14T22:06:06.109Z,4.33
2023-04-14T22:08:33.557Z,7.37
2023-04-14T22:11:01.558Z,4.37
2023-04-14T22:13:29.014Z,6.23
2023-04-14T22:15:57.992Z,4.93
2023-04-14T22:18:25.441Z,4.93
2023-04-14T22:20:52.886Z,5.77
2023-04-14T22:23:20.871Z,6.67
2023-04-14T22:25:48.310Z,4.93
2023-04-14T22:28:15.797Z,10.90
2023-04-14T22:30:44.088Z,6.30
2023-04-14T22:33:12.970Z,8.17
2023-04-14T22:35:40.702Z,7.93
2023-04-14T22:38:08.189Z,4.83
2023-04-14T22:40:35.894Z,6.83
2023-04-14T22:43:08.468Z,4.67
2023-04-14T22:45:36.854Z,5.30
2023-04-14T22:48:04.618Z,3.70
2023-04-14T22:50:33.708Z,4.17
2023-04-14T22:53:01.828Z,5.40
2023-04-14T22:55:29.335Z,6.50
2023-04-14T22:57:57.063Z,6.30
2023-04-14T23:00:24.578Z,5.37
2023-04-14T23:02:52.860Z,5.23
2023-04-14T23:05:20.803Z,5.87
2023-04-14T23:07:49.712Z,5.23
2023-04-14T23:10:17.180Z,7.00
2023-04-14T23:12:44.628Z,4.33
2023-04-14T23:15:12.262Z,3.43
2023-04-14T23:17:39.795Z,3.80
2023-04-14T23:20:08.787Z,7.23
2023-04-14T23:22:36.306Z,3.10
2023-04-14T23:25:06.077Z,4.97
2023-04-14T23:27:33.565Z,3.53
2023-04-14T23:30:01.236Z,6.30
2023-04-14T23:32:28.776Z,4.10
2023-04-14T23:34:56.329Z,5.27
2023-04-14T23:37:24.018Z,3.60
2023-04-14T23:39:51.511Z,7.90
2023-04-14T23:42:20.553Z,8.70
2023-04-14T23:44:48.061Z,10.03
2023-04-14T23:47:15.552Z,7.80
2023-04-14T23:49:43.112Z,6.73
2023-04-14T23:52:10.846Z,5.50
2023-04-14T23:54:38.323Z,4.90
2023-04-14T23:57:05.815Z,4.97
2023-04-14T23:59:34.654Z,7.67
